Time,TemperatureF,DewpointF,PressureIn,WindDirection,WindDirectionDegrees,WindSpeedMPH,WindSpeedGustMPH,Humidity,HourlyPrecipIn,Conditions,Clouds,dailyrainin,SolarRadiationWatts/m^2,SoftwareType,DateUTC
2013-01-08 00:12:00,14.0,13.0,-100.00,East,97,0.0,0.0,96,-99.99,,,0.00,0.000000,,2013-01-08 09:12:00,
2013-01-08 00:22:00,14.0,13.0,-100.00,East,97,0.0,0.0,96,-99.99,,,0.00,0.000000,,2013-01-08 09:22:00,
2013-01-08 01:12:00,14.0,13.0,-100.00,East,100,0.0,0.0,96,-99.99,,,0.00,0.000000,,2013-01-08 10:12:00,
2013-01-08 01:22:00,14.0,13.0,-100.00,East,100,0.0,0.0,96,-99.99,,,0.00,0.000000,,2013-01-08 10:22:00,
2013-01-08 02:12:00,13.0,12.0,-100.00,North,5,0.0,0.0,96,-99.99,,,0.00,0.000000,,2013-01-08 11:12:00,
2013-01-08 02:22:00,13.0,12.0,-100.00,North,5,0.0,0.0,96,-99.99,,,0.00,0.000000,,2013-01-08 11:22:00,
2013-01-08 03:12:00,13.0,12.0,-100.00,East,82,0.0,0.0,96,-99.99,,,0.00,0.000000,,2013-01-08 12:12:00,
2013-01-08 03:22:00,13.0,12.0,-100.00,East,82,0.0,0.0,96,-99.99,,,0.00,0.000000,,2013-01-08 12:22:00,
2013-01-08 04:12:00,11.0,10.0,-100.00,East,84,0.0,0.0,94,-99.99,,,-99.99,0.000000,,2013-01-08 13:12:00,
2013-01-08 04:22:00,11.0,10.0,-100.00,East,84,0.0,0.0,94,-99.99,,,-99.99,0.000000,,2013-01-08 13:22:00,
2013-01-08 05:12:00,11.0,10.0,-100.00,East,79,0.0,0.0,94,-99.99,,,0.00,0.000000,,2013-01-08 14:12:00,
2013-01-08 05:23:00,11.0,10.0,-100.00,East,79,0.0,0.0,94,-99.99,,,0.00,0.000000,,2013-01-08 14:23:00,
2013-01-08 06:12:00,12.0,11.0,-100.00,ENE,72,0.0,0.0,95,-99.99,,,0.00,0.000000,,2013-01-08 15:12:00,
2013-01-08 06:22:00,12.0,11.0,-100.00,ENE,72,0.0,0.0,95,-99.99,,,0.00,0.000000,,2013-01-08 15:22:00,
2013-01-08 07:12:00,12.0,11.0,-100.00,East,93,0.0,0.0,94,-99.99,,,0.00,0.000000,,2013-01-08 16:12:00,
2013-01-08 07:22:00,12.0,11.0,-100.00,East,93,0.0,0.0,94,-99.99,,,0.00,0.000000,,2013-01-08 16:22:00,
2013-01-08 08:12:00,10.0,9.0,-100.00,East,85,0.0,1.0,94,-99.99,,,0.00,0.000000,,2013-01-08 17:12:00,
2013-01-08 08:23:00,10.0,9.0,-100.00,East,85,0.0,1.0,94,-99.99,,,0.00,0.000000,,2013-01-08 17:23:00,
2013-01-08 09:23:00,10.0,9.0,-100.00,ESE,109,0.0,2.0,94,-99.99,,,0.00,0.000000,,2013-01-08 18:23:00,
2013-01-08 10:12:00,12.0,11.0,-100.00,East,97,0.0,1.0,97,-99.99,,,0.00,0.000000,,2013-01-08 19:12:00,
2013-01-08 10:22:00,12.0,11.0,-100.00,East,97,0.0,1.0,97,-99.99,,,0.00,0.000000,,2013-01-08 19:22:00,
2013-01-08 10:52:00,13.0,12.0,-100.00,ESE,102,0.0,2.0,95,-99.99,,,-99.99,0.000000,,2013-01-08 19:52:00,
2013-01-08 11:43:00,13.0,12.0,-100.00,ESE,102,0.0,2.0,95,-99.99,,,-99.99,0.000000,,2013-01-08 20:43:00,
2013-01-08 12:12:00,15.0,14.0,-100.00,ENE,74,0.0,1.0,97,-99.99,,,0.00,5.000000,,2013-01-08 21:12:00,
2013-01-08 12:22:00,15.0,14.0,-100.00,ENE,74,0.0,1.0,97,-99.99,,,0.00,5.000000,,2013-01-08 21:22:00,
2013-01-08 12:52:00,18.0,18.0,-100.00,ESE,108,1.0,2.0,98,-99.99,,,0.00,5.000000,,2013-01-08 21:52:00,
2013-01-08 13:12:00,18.0,18.0,-100.00,ESE,108,1.0,2.0,98,-99.99,,,0.00,5.000000,,2013-01-08 22:12:00,
2013-01-08 13:22:00,18.0,18.0,-100.00,ESE,108,1.0,2.0,98,-99.99,,,0.00,5.000000,,2013-01-08 22:22:00,
2013-01-08 13:32:00,18.0,18.0,-100.00,ESE,108,1.0,2.0,98,-99.99,,,0.00,5.000000,,2013-01-08 22:32:00,
2013-01-08 13:42:00,18.0,18.0,-100.00,ESE,108,1.0,2.0,98,-99.99,,,0.00,5.000000,,2013-01-08 22:42:00,
2013-01-08 13:52:00,20.0,20.0,-100.00,ENE,64,0.0,2.0,98,0.00,,,0.00,5.000000,,2013-01-08 22:52:00,
2013-01-08 14:22:00,20.0,20.0,-100.00,ENE,64,0.0,2.0,98,0.00,,,0.00,5.000000,,2013-01-08 23:22:00,
2013-01-08 14:32:00,20.0,20.0,-100.00,ENE,64,0.0,2.0,98,0.00,,,0.00,5.000000,,2013-01-08 23:32:00,
2013-01-08 14:42:00,20.0,20.0,-100.00,ENE,64,0.0,2.0,98,0.00,,,0.00,5.000000,,2013-01-08 23:42:00,
2013-01-08 14:52:00,22.0,22.0,-100.00,ENE,75,0.0,3.0,99,0.00,,,0.00,5.000000,,2013-01-08 23:52:00,
2013-01-08 15:12:00,22.0,22.0,-100.00,ENE,75,0.0,3.0,99,0.00,,,0.00,5.000000,,2013-01-09 00:12:00,
2013-01-08 15:22:00,22.0,22.0,-100.00,ENE,75,0.0,3.0,99,0.00,,,0.00,5.000000,,2013-01-09 00:22:00,
2013-01-08 15:32:00,22.0,22.0,-100.00,ENE,75,0.0,3.0,99,0.00,,,0.00,5.000000,,2013-01-09 00:32:00,
2013-01-08 15:42:00,22.0,22.0,-100.00,ENE,75,0.0,3.0,99,0.00,,,0.00,5.000000,,2013-01-09 00:42:00,
2013-01-08 15:52:00,21.0,21.0,-100.00,East,85,0.0,3.0,99,0.00,,,0.00,5.000000,,2013-01-09 00:52:00,
2013-01-08 16:22:00,21.0,21.0,-100.00,East,85,0.0,3.0,99,0.00,,,0.00,5.000000,,2013-01-09 01:22:00,
2013-01-08 16:32:00,21.0,21.0,-100.00,East,85,0.0,3.0,99,0.00,,,0.00,5.000000,,2013-01-09 01:32:00,
2013-01-08 16:42:00,21.0,21.0,-100.00,East,85,0.0,3.0,99,0.00,,,0.00,5.000000,,2013-01-09 01:42:00,
2013-01-08 16:52:00,19.0,18.0,-100.00,ENE,68,0.0,1.0,97,0.00,,,0.00,0.000000,,2013-01-09 01:52:00,
2013-01-08 17:22:00,19.0,18.0,-100.00,ENE,68,0.0,1.0,97,0.00,,,0.00,0.000000,,2013-01-09 02:22:00,
2013-01-08 17:32:00,19.0,18.0,-100.00,ENE,68,0.0,1.0,97,0.00,,,0.00,0.000000,,2013-01-09 02:32:00,
2013-01-08 17:42:00,19.0,18.0,-100.00,ENE,68,0.0,1.0,97,0.00,,,0.00,0.000000,,2013-01-09 02:42:00,
2013-01-08 17:52:00,17.0,17.0,-100.00,East,90,0.0,3.0,98,0.00,,,0.00,0.000000,,2013-01-09 02:52:00,
2013-01-08 18:12:00,17.0,17.0,-100.00,East,90,0.0,3.0,98,0.00,,,0.00,0.000000,,2013-01-09 03:12:00,
2013-01-08 18:22:00,17.0,17.0,-100.00,East,90,0.0,3.0,98,0.00,,,0.00,0.000000,,2013-01-09 03:22:00,
2013-01-08 18:32:00,17.0,17.0,-100.00,East,90,0.0,3.0,98,0.00,,,0.00,0.000000,,2013-01-09 03:32:00,
2013-01-08 18:42:00,17.0,17.0,-100.00,East,90,0.0,3.0,98,0.00,,,0.00,0.000000,,2013-01-09 03:42:00,
2013-01-08 18:52:00,16.0,15.0,-100.00,East,80,1.0,4.0,97,0.00,,,0.00,0.000000,,2013-01-09 03:52:00,
2013-01-08 19:12:00,16.0,15.0,-100.00,East,80,1.0,4.0,97,0.00,,,0.00,0.000000,,2013-01-09 04:12:00,
2013-01-08 19:22:00,16.0,15.0,-100.00,East,80,1.0,4.0,97,0.00,,,0.00,0.000000,,2013-01-09 04:22:00,
2013-01-08 19:32:00,16.0,15.0,-100.00,East,80,1.0,4.0,97,0.00,,,0.00,0.000000,,2013-01-09 04:32:00,
2013-01-08 19:42:00,16.0,15.0,-100.00,East,80,1.0,4.0,97,0.00,,,0.00,0.000000,,2013-01-09 04:42:00,
2013-01-08 19:52:00,16.0,15.0,-100.00,ENE,65,1.0,4.0,96,0.00,,,0.00,0.000000,,2013-01-09 04:52:00,
2013-01-08 20:12:00,16.0,15.0,-100.00,ENE,65,1.0,4.0,96,0.00,,,0.00,0.000000,,2013-01-09 05:12:00,
2013-01-08 20:22:00,16.0,15.0,-100.00,ENE,65,1.0,4.0,96,0.00,,,0.00,0.000000,,2013-01-09 05:22:00,
2013-01-08 20:33:00,16.0,15.0,-100.00,ENE,65,1.0,4.0,96,0.00,,,0.00,0.000000,,2013-01-09 05:33:00,
2013-01-08 20:42:00,16.0,15.0,-100.00,ENE,65,1.0,4.0,96,0.00,,,0.00,0.000000,,2013-01-09 05:42:00,
2013-01-08 20:52:00,14.0,13.0,-100.00,East,80,0.0,4.0,96,0.00,,,0.00,0.000000,,2013-01-09 05:52:00,
2013-01-08 21:12:00,14.0,13.0,-100.00,East,80,0.0,4.0,96,0.00,,,0.00,0.000000,,2013-01-09 06:12:00,
2013-01-08 21:22:00,14.0,13.0,-100.00,East,80,0.0,4.0,96,0.00,,,0.00,0.000000,,2013-01-09 06:22:00,
2013-01-08 21:32:00,14.0,13.0,-100.00,East,80,0.0,4.0,96,0.00,,,0.00,0.000000,,2013-01-09 06:32:00,
2013-01-08 21:42:00,14.0,13.0,-100.00,East,80,0.0,4.0,96,0.00,,,0.00,0.000000,,2013-01-09 06:42:00,
2013-01-08 21:52:00,13.0,12.0,-100.00,NE,55,0.0,1.0,97,-99.99,,,0.00,0.000000,,2013-01-09 06:52:00,
2013-01-08 22:12:00,13.0,12.0,-100.00,NE,55,0.0,1.0,97,-99.99,,,0.00,0.000000,,2013-01-09 07:12:00,
2013-01-08 22:22:00,13.0,12.0,-100.00,NE,55,0.0,1.0,97,-99.99,,,0.00,0.000000,,2013-01-09 07:22:00,
2013-01-08 22:42:00,13.0,12.0,-100.00,NE,55,0.0,1.0,97,-99.99,,,0.00,0.000000,,2013-01-09 07:42:00,
2013-01-08 22:52:00,15.0,15.0,-100.00,ENE,68,1.0,3.0,98,0.00,,,0.00,0.000000,,2013-01-09 07:52:00,
2013-01-08 23:12:00,15.0,15.0,-100.00,ENE,68,1.0,3.0,98,0.00,,,0.00,0.000000,,2013-01-09 08:12:00,
2013-01-08 23:22:00,15.0,15.0,-100.00,ENE,68,1.0,3.0,98,0.00,,,0.00,0.000000,,2013-01-09 08:22:00,
2013-01-08 23:32:00,15.0,15.0,-100.00,ENE,68,1.0,3.0,98,0.00,,,0.00,0.000000,,2013-01-09 08:32:00,
2013-01-08 23:42:00,15.0,15.0,-100.00,ENE,68,1.0,3.0,98,0.00,,,0.00,0.000000,,2013-01-09 08:42:00,
2013-01-08 23:52:00,15.0,14.0,-100.00,ENE,77,0.0,2.0,97,0.00,,,-99.99,0.000000,,2013-01-09 08:52:00,